Quail, Texas
Current Conditions -  °F | °C
As of 8:32 AM on Saturday 22 Nov 2014 (Local Time) from KCDS Reporting Station
Haze Haze  
Wind Chill: 44°   Ceiling: 3300
Heat Index: 46°   Visibility: 2.5mi
Dew Point: 45°   Wind: 5mph
Humidity: 96%   Direction: 280°W
Pressure: 29.97"   Gusts: NA
Location:  34.91°N, 100.4°W
Report Text: KCDS 221432Z AUTO 28004KT 2 1/2SM BR FEW002 BKN033 BKN042 08/07 A2997 RMK AO2 T00780072
Loading
Personal Weather Stations






























Interactive Weather Map New forecast layout! Learn more

10-Day Weather Forecast

Advertisements
Track Severe Weather on mobile